createdAt,value
2023-05-19T00:00:28.682Z,9.32
2023-05-19T00:02:57.446Z,7.70
2023-05-19T00:05:25.969Z,6.45
2023-05-19T00:07:59.661Z,9.77
2023-05-19T00:10:31.661Z,7.50
2023-05-19T00:13:00.509Z,14.48
2023-05-19T00:15:28.798Z,7.05
2023-05-19T00:17:56.765Z,9.85
2023-05-19T00:20:24.700Z,6.38
2023-05-19T00:22:52.569Z,8.05
2023-05-19T00:25:21.842Z,8.02
2023-05-19T00:27:49.601Z,6.85
2023-05-19T00:30:17.554Z,6.18
2023-05-19T00:32:45.674Z,5.72
2023-05-19T00:35:13.916Z,4.03
2023-05-19T00:37:41.746Z,5.85
2023-05-19T00:40:11.284Z,6.50
2023-05-19T00:42:40.823Z,6.53
2023-05-19T00:45:09.525Z,7.03
2023-05-19T00:47:37.579Z,7.13
2023-05-19T00:50:05.890Z,7.53
2023-05-19T00:52:33.759Z,6.20
2023-05-19T00:55:01.724Z,3.95
2023-05-19T00:57:29.708Z,4.63
2023-05-19T00:59:58.840Z,9.63
2023-05-19T01:02:29.828Z,12.05
2023-05-19T01:04:58.247Z,5.55
2023-05-19T01:07:27.350Z,5.70
2023-05-19T01:09:55.622Z,7.78
2023-05-19T01:12:24.164Z,7.50
2023-05-19T01:14:53.073Z,4.40
2023-05-19T01:17:40.387Z,6.40
2023-05-19T01:20:16.136Z,7.55
2023-05-19T01:23:15.120Z,9.73
2023-05-19T01:26:19.331Z,6.05
2023-05-19T01:29:13.672Z,6.05
2023-05-19T01:31:44.562Z,9.15
2023-05-19T01:34:14.295Z,5.05
2023-05-19T01:36:44.798Z,8.75
2023-05-19T01:39:13.662Z,9.90
2023-05-19T01:41:42.983Z,7.75
2023-05-19T01:44:11.261Z,9.07
2023-05-19T01:46:40.043Z,9.48
2023-05-19T01:49:10.014Z,6.80
2023-05-19T01:51:37.852Z,7.57
2023-05-19T01:54:05.681Z,9.25
2023-05-19T01:56:44.947Z,7.75
2023-05-19T01:59:25.045Z,8.00
2023-05-19T02:01:54.814Z,9.73
2023-05-19T02:04:33.025Z,11.48
2023-05-19T02:07:06.445Z,9.80
2023-05-19T02:09:40.645Z,9.18
2023-05-19T02:12:14.928Z,7.07
2023-05-19T02:14:49.679Z,6.55
2023-05-19T02:17:21.403Z,6.13
2023-05-19T02:19:50.635Z,6.47
2023-05-19T02:22:18.439Z,8.38
2023-05-19T02:24:47.855Z,8.05
2023-05-19T02:27:18.807Z,5.88
2023-05-19T02:29:56.990Z,12.10
2023-05-19T02:35:07.035Z,8.65
2023-05-19T02:37:36.958Z,10.13
2023-05-19T02:40:05.540Z,7.63
2023-05-19T02:42:33.383Z,7.25
2023-05-19T02:45:01.775Z,5.93
2023-05-19T02:47:29.615Z,8.60
2023-05-19T02:49:57.460Z,9.55
2023-05-19T02:52:26.611Z,8.70
2023-05-19T02:54:54.450Z,6.53
2023-05-19T02:57:22.312Z,11.02
2023-05-19T02:59:50.082Z,13.35
2023-05-19T03:02:17.902Z,6.97
2023-05-19T03:04:45.715Z,7.18
2023-05-19T03:07:15.565Z,10.23
2023-05-19T03:09:44.847Z,8.05
2023-05-19T03:12:12.644Z,12.43
2023-05-19T03:14:41.176Z,9.18
2023-05-19T03:17:10.217Z,12.40
2023-05-19T03:19:38.469Z,11.80
2023-05-19T03:22:06.532Z,7.22
2023-05-19T03:24:34.650Z,13.70
2023-05-19T03:27:05.347Z,7.47
2023-05-19T03:29:33.327Z,9.25
2023-05-19T03:32:01.782Z,11.25
2023-05-19T03:34:29.726Z,10.35
2023-05-19T03:36:57.575Z,13.98
2023-05-19T03:39:25.523Z,12.40
2023-05-19T03:41:53.341Z,8.82
2023-05-19T03:44:22.442Z,9.13
2023-05-19T03:46:50.589Z,13.48
2023-05-19T03:49:18.423Z,12.90
2023-05-19T03:51:46.257Z,9.75
2023-05-19T03:54:14.073Z,12.18
2023-05-19T03:56:44.290Z,15.55
2023-05-19T03:59:12.913Z,12.65
2023-05-19T04:01:42.093Z,16.20
2023-05-19T04:04:10.054Z,18.80
2023-05-19T04:06:37.980Z,22.70
2023-05-19T04:09:13.107Z,29.27
2023-05-19T04:11:41.313Z,23.80
2023-05-19T04:14:09.678Z,10.45
2023-05-19T04:16:37.558Z,16.77
2023-05-19T04:19:06.946Z,26.65
2023-05-19T04:21:34.908Z,13.80
2023-05-19T04:24:02.812Z,13.90
2023-05-19T04:26:34.552Z,12.43
2023-05-19T04:29:04.505Z,10.13
2023-05-19T04:31:34.331Z,6.60
2023-05-19T04:34:02.824Z,13.10
2023-05-19T04:36:32.005Z,13.60
2023-05-19T04:39:02.447Z,9.90
2023-05-19T04:41:30.477Z,11.90
2023-05-19T04:43:58.617Z,15.52
2023-05-19T04:46:30.025Z,11.23
2023-05-19T04:48:58.116Z,13.63
2023-05-19T04:51:30.285Z,11.00
2023-05-19T04:53:59.809Z,6.43
2023-05-19T04:56:28.992Z,9.73
2023-05-19T04:58:56.864Z,6.72
2023-05-19T05:01:26.190Z,11.20
2023-05-19T05:03:56.232Z,10.45
2023-05-19T05:06:24.049Z,9.27
2023-05-19T05:08:52.662Z,9.50
2023-05-19T05:11:22.463Z,12.55
2023-05-19T05:13:50.993Z,8.57
2023-05-19T05:16:19.330Z,11.57
2023-05-19T05:18:47.972Z,10.02
2023-05-19T05:21:16.191Z,8.32
2023-05-19T05:23:44.558Z,10.57
2023-05-19T05:26:19.007Z,11.95
2023-05-19T05:28:48.193Z,7.47
2023-05-19T05:31:16.367Z,8.60
2023-05-19T05:33:44.868Z,7.68
2023-05-19T05:36:15.459Z,9.90
2023-05-19T05:39:32.907Z,5.70
2023-05-19T05:42:01.003Z,3.33
2023-05-19T05:44:30.473Z,8.55
2023-05-19T05:46:58.823Z,5.63
2023-05-19T05:49:27.332Z,5.03
2023-05-19T05:52:05.632Z,7.03
2023-05-19T05:54:34.992Z,10.18
2023-05-19T05:57:04.120Z,3.80
2023-05-19T05:59:34.002Z,4.45
2023-05-19T06:02:02.382Z,8.05
2023-05-19T06:04:30.192Z,6.05
2023-05-19T06:07:01.806Z,5.35
2023-05-19T06:09:30.408Z,8.32
2023-05-19T06:12:00.061Z,5.32
2023-05-19T06:14:28.226Z,3.20
2023-05-19T06:16:57.490Z,7.45
2023-05-19T06:19:25.769Z,7.82
2023-05-19T06:21:53.683Z,10.95
2023-05-19T06:24:21.572Z,8.48
2023-05-19T06:26:49.416Z,3.88
2023-05-19T06:29:17.239Z,4.72
2023-05-19T06:31:45.147Z,5.47
2023-05-19T06:34:17.566Z,3.58
2023-05-19T06:36:45.452Z,4.63
2023-05-19T06:39:13.235Z,3.88
2023-05-19T06:41:41.050Z,3.85
2023-05-19T06:44:09.051Z,5.07
2023-05-19T06:46:37.052Z,4.30
2023-05-19T06:49:04.917Z,6.40
2023-05-19T06:51:35.403Z,4.45
2023-05-19T06:54:03.277Z,4.05
2023-05-19T06:56:31.224Z,4.80
2023-05-19T06:58:59.118Z,2.40
2023-05-19T07:01:27.796Z,4.88
2023-05-19T07:03:56.024Z,3.15
2023-05-19T07:06:23.887Z,4.60
2023-05-19T07:08:53.167Z,2.72
2023-05-19T07:11:21.775Z,3.35
2023-05-19T07:13:49.893Z,5.70
2023-05-19T07:16:17.719Z,2.47
2023-05-19T07:18:45.656Z,5.50
2023-05-19T07:21:13.453Z,5.18
2023-05-19T07:23:41.306Z,3.35
2023-05-19T07:26:10.584Z,5.15
2023-05-19T07:28:41.332Z,7.50
2023-05-19T07:31:10.282Z,4.15
2023-05-19T07:33:38.466Z,4.80
2023-05-19T07:36:06.824Z,4.35
2023-05-19T07:38:35.951Z,4.45
2023-05-19T07:41:04.302Z,8.18
2023-05-19T07:43:34.240Z,4.93
2023-05-19T07:46:02.175Z,4.22
2023-05-19T07:48:29.978Z,5.30
2023-05-19T07:50:57.883Z,5.13
2023-05-19T07:53:26.030Z,2.55
2023-05-19T07:55:55.427Z,1.73
2023-05-19T07:58:23.738Z,2.00
2023-05-19T08:00:53.369Z,2.55
2023-05-19T08:03:22.991Z,2.08
2023-05-19T08:05:50.955Z,4.15
2023-05-19T08:08:19.610Z,3.13
2023-05-19T08:10:47.628Z,2.53
2023-05-19T08:13:15.593Z,3.70
2023-05-19T08:15:43.783Z,8.00
2023-05-19T08:18:13.071Z,3.55
2023-05-19T08:20:40.863Z,3.88
2023-05-19T08:23:08.615Z,3.22
2023-05-19T08:25:36.456Z,2.72
2023-05-19T08:28:04.496Z,2.58
2023-05-19T08:30:32.782Z,3.30
2023-05-19T08:33:01.398Z,6.30
2023-05-19T08:35:30.704Z,5.68
2023-05-19T08:37:58.493Z,5.25
2023-05-19T08:40:27.343Z,4.47
2023-05-19T08:42:55.512Z,5.90
2023-05-19T08:45:23.265Z,2.63
2023-05-19T08:47:52.378Z,3.42
2023-05-19T08:50:25.368Z,4.97
2023-05-19T08:53:02.587Z,4.78
2023-05-19T08:55:35.236Z,2.90
2023-05-19T08:58:05.724Z,6.03
2023-05-19T09:00:34.257Z,4.38
2023-05-19T09:03:17.389Z,4.47
2023-05-19T09:05:47.175Z,3.53
2023-05-19T09:08:16.648Z,3.97
2023-05-19T09:10:44.534Z,3.38
2023-05-19T09:13:12.389Z,6.75
2023-05-19T09:15:41.370Z,6.15
2023-05-19T09:18:10.658Z,5.50
2023-05-19T09:20:40.679Z,7.88
2023-05-19T09:23:08.869Z,3.45
2023-05-19T09:25:38.030Z,3.50
2023-05-19T09:28:09.700Z,3.15
2023-05-19T09:30:39.434Z,1.67
2023-05-19T09:33:10.072Z,3.60
2023-05-19T09:35:38.118Z,5.25
2023-05-19T09:38:06.500Z,2.92
2023-05-19T09:40:34.801Z,4.13
2023-05-19T09:43:06.573Z,4.82
2023-05-19T09:45:34.573Z,3.45
2023-05-19T09:48:05.756Z,6.40
2023-05-19T09:50:34.279Z,2.95
2023-05-19T09:53:03.265Z,3.03
2023-05-19T09:55:33.147Z,3.30
2023-05-19T09:58:04.211Z,4.72
2023-05-19T10:00:35.266Z,3.70
2023-05-19T10:03:06.096Z,5.80
2023-05-19T10:05:35.027Z,3.67
2023-05-19T10:08:07.253Z,6.88
2023-05-19T10:10:35.834Z,5.43
2023-05-19T10:13:05.053Z,4.97
2023-05-19T10:15:40.818Z,4.20
2023-05-19T10:18:16.939Z,6.05
2023-05-19T10:20:45.349Z,6.72
2023-05-19T10:23:13.229Z,4.13
2023-05-19T10:25:42.250Z,6.65
2023-05-19T10:28:12.718Z,4.10
2023-05-19T10:30:45.856Z,3.67
2023-05-19T10:33:17.316Z,3.22
2023-05-19T10:36:16.782Z,5.28
2023-05-19T10:38:51.183Z,3.35
2023-05-19T10:41:28.016Z,5.18
2023-05-19T10:44:05.188Z,6.38
2023-05-19T10:46:34.990Z,4.68
2023-05-19T10:49:02.848Z,5.63
2023-05-19T10:51:32.489Z,4.20
2023-05-19T10:54:03.092Z,4.60
2023-05-19T10:56:34.783Z,5.10
2023-05-19T10:59:03.291Z,4.38
2023-05-19T11:01:33.278Z,4.60
2023-05-19T11:04:09.079Z,6.05
2023-05-19T11:06:38.248Z,4.90
2023-05-19T11:09:14.458Z,5.80
2023-05-19T11:11:47.740Z,6.65
2023-05-19T11:14:16.543Z,7.93
2023-05-19T11:16:48.600Z,8.15
2023-05-19T11:19:28.452Z,8.60
2023-05-19T11:21:58.143Z,6.35
2023-05-19T11:24:36.332Z,8.32
2023-05-19T11:27:23.861Z,6.35
2023-05-19T11:29:52.862Z,5.72
2023-05-19T11:32:22.293Z,6.82
2023-05-19T11:34:52.512Z,5.63
2023-05-19T11:37:20.880Z,4.97
2023-05-19T11:39:48.889Z,4.15
2023-05-19T11:42:17.696Z,5.00
2023-05-19T11:44:46.810Z,5.95
2023-05-19T11:47:15.442Z,5.03
2023-05-19T11:49:45.205Z,7.82
2023-05-19T11:52:14.510Z,6.75
2023-05-19T11:54:42.996Z,6.60
2023-05-19T11:57:11.699Z,4.53
2023-05-19T11:59:43.839Z,5.22
2023-05-19T12:02:18.466Z,5.10
2023-05-19T12:04:46.788Z,5.03
2023-05-19T12:07:18.523Z,6.05
2023-05-19T12:09:47.112Z,3.05
2023-05-19T12:12:17.016Z,5.55
2023-05-19T12:14:47.172Z,6.88
2023-05-19T12:17:16.599Z,5.55
2023-05-19T12:19:45.513Z,3.97
2023-05-19T12:22:14.283Z,4.57
2023-05-19T12:24:45.022Z,3.25
2023-05-19T12:27:14.101Z,4.47
2023-05-19T12:29:42.197Z,5.07
2023-05-19T12:32:10.944Z,7.38
2023-05-19T12:34:39.395Z,4.57
2023-05-19T12:37:08.612Z,4.95
2023-05-19T12:39:38.293Z,4.80
2023-05-19T12:42:09.757Z,4.65
2023-05-19T12:44:38.904Z,4.13
2023-05-19T12:47:08.026Z,5.45
2023-05-19T12:49:36.154Z,4.68
2023-05-19T12:52:10.482Z,6.57
2023-05-19T12:54:40.640Z,4.13
2023-05-19T12:57:12.050Z,4.25
2023-05-19T12:59:40.558Z,4.35
2023-05-19T13:02:08.597Z,4.18
2023-05-19T13:04:36.699Z,5.20
2023-05-19T13:07:05.016Z,4.78
2023-05-19T13:09:35.239Z,2.88
2023-05-19T13:12:04.765Z,4.95
2023-05-19T13:14:34.291Z,4.82
2023-05-19T13:17:02.227Z,4.25
2023-05-19T13:19:30.197Z,5.25
2023-05-19T13:21:58.750Z,3.08
2023-05-19T13:24:26.817Z,5.20
2023-05-19T13:26:55.924Z,5.38
2023-05-19T13:29:24.033Z,4.63
2023-05-19T13:31:53.207Z,5.30
2023-05-19T13:34:21.088Z,4.10
2023-05-19T13:36:49.302Z,4.13
2023-05-19T13:39:17.193Z,3.78
2023-05-19T13:41:45.194Z,3.38
2023-05-19T13:44:13.004Z,3.45
2023-05-19T13:46:45.662Z,2.50
2023-05-19T13:49:16.042Z,1.95
2023-05-19T13:51:44.588Z,3.15
2023-05-19T13:54:12.485Z,3.28
2023-05-19T13:56:40.640Z,2.58
2023-05-19T13:59:08.597Z,7.70
2023-05-19T14:01:37.083Z,6.10
2023-05-19T14:04:05.579Z,3.17
2023-05-19T14:06:34.986Z,3.80
2023-05-19T14:09:03.034Z,2.67
2023-05-19T14:11:30.825Z,3.95
2023-05-19T14:13:58.714Z,3.45
2023-05-19T14:16:28.689Z,5.47
2023-05-19T14:18:57.244Z,3.45
2023-05-19T14:21:25.436Z,4.03
2023-05-19T14:23:54.757Z,3.85
2023-05-19T14:26:22.872Z,5.13
2023-05-19T14:28:51.401Z,2.92
2023-05-19T14:31:19.619Z,7.65
2023-05-19T14:33:47.576Z,4.80
2023-05-19T14:36:15.482Z,4.78
2023-05-19T14:38:43.345Z,3.28
2023-05-19T14:41:13.777Z,4.22
2023-05-19T14:43:43.195Z,5.18
2023-05-19T14:46:11.095Z,2.28
2023-05-19T14:48:39.001Z,4.78
2023-05-19T14:51:06.932Z,5.95
2023-05-19T14:53:34.803Z,5.35
2023-05-19T14:56:02.961Z,5.30
2023-05-19T14:58:33.140Z,5.85
2023-05-19T15:01:01.025Z,3.40
2023-05-19T15:03:28.912Z,4.72
2023-05-19T15:05:57.098Z,4.55
2023-05-19T15:08:24.928Z,2.78
2023-05-19T15:10:52.721Z,5.05
2023-05-19T15:13:21.628Z,1.73
2023-05-19T15:16:08.203Z,3.58
2023-05-19T15:18:43.030Z,3.45
2023-05-19T15:21:11.043Z,2.42
2023-05-19T15:23:38.825Z,6.25
2023-05-19T15:26:07.000Z,2.70
2023-05-19T15:28:34.970Z,3.30
2023-05-19T15:31:04.226Z,3.35
2023-05-19T15:33:32.081Z,5.22
2023-05-19T15:36:00.022Z,5.53
2023-05-19T15:38:29.996Z,11.55
2023-05-19T15:40:58.521Z,5.55
2023-05-19T15:43:27.276Z,6.47
2023-05-19T15:45:58.578Z,4.00
2023-05-19T15:48:29.021Z,7.05
2023-05-19T15:50:58.192Z,5.47
2023-05-19T15:53:26.761Z,5.35
2023-05-19T15:55:54.566Z,7.15
2023-05-19T15:58:22.411Z,4.78
2023-05-19T16:00:51.513Z,4.72
2023-05-19T16:03:19.408Z,3.38
2023-05-19T16:05:48.602Z,2.45
2023-05-19T16:08:16.421Z,5.85
2023-05-19T16:10:44.228Z,3.20
2023-05-19T16:13:12.093Z,4.38
2023-05-19T16:15:40.035Z,4.15
2023-05-19T16:18:07.966Z,4.10
2023-05-19T16:20:36.038Z,2.50
2023-05-19T16:23:05.641Z,4.72
2023-05-19T16:25:33.740Z,3.83
2023-05-19T16:28:01.631Z,4.35
2023-05-19T16:30:29.711Z,6.22
2023-05-19T16:32:57.637Z,6.43
2023-05-19T16:35:27.791Z,9.45
2023-05-19T16:37:55.740Z,8.38
2023-05-19T16:40:24.891Z,4.68
2023-05-19T16:42:53.688Z,5.78
2023-05-19T16:45:22.962Z,4.13
2023-05-19T16:47:50.768Z,5.28
2023-05-19T16:50:19.511Z,9.10
2023-05-19T16:52:48.614Z,2.90
2023-05-19T16:55:20.706Z,6.05
2023-05-19T16:57:49.937Z,3.72
2023-05-19T17:00:18.077Z,6.28
2023-05-19T17:02:46.120Z,8.63
2023-05-19T17:05:14.071Z,3.63
2023-05-19T17:07:41.859Z,7.00
2023-05-19T17:10:10.634Z,4.78
2023-05-19T17:12:38.874Z,5.75
2023-05-19T17:15:09.252Z,5.10
2023-05-19T17:17:37.243Z,2.95
2023-05-19T17:20:05.893Z,4.53
2023-05-19T17:22:33.675Z,3.38
2023-05-19T17:25:01.519Z,7.40
2023-05-19T17:27:29.361Z,4.82
2023-05-19T17:29:57.274Z,5.05
2023-05-19T17:32:28.397Z,2.75
2023-05-19T17:34:56.628Z,9.43
2023-05-19T17:37:25.662Z,2.55
2023-05-19T17:39:53.531Z,3.55
2023-05-19T17:42:22.091Z,4.05
2023-05-19T17:44:50.135Z,2.88
2023-05-19T17:47:20.320Z,6.07
2023-05-19T17:49:50.310Z,3.15
2023-05-19T17:52:19.228Z,3.65
2023-05-19T17:54:47.853Z,2.17
2023-05-19T17:57:17.049Z,4.20
2023-05-19T17:59:45.367Z,5.20
2023-05-19T18:02:15.314Z,3.05
2023-05-19T18:04:44.085Z,2.70
2023-05-19T18:07:16.583Z,3.30
2023-05-19T18:09:46.257Z,2.25
2023-05-19T18:12:14.565Z,3.95
2023-05-19T18:14:42.822Z,4.15
2023-05-19T18:17:10.897Z,5.72
2023-05-19T18:19:38.776Z,7.05
2023-05-19T18:22:06.792Z,4.00
2023-05-19T18:24:36.121Z,5.68
2023-05-19T18:27:04.356Z,6.63
2023-05-19T18:29:34.843Z,3.72
2023-05-19T18:32:03.256Z,2.08
2023-05-19T18:34:31.385Z,2.13
2023-05-19T18:36:59.290Z,4.32
2023-05-19T18:39:29.153Z,4.32
2023-05-19T18:41:59.954Z,6.07
2023-05-19T18:44:28.280Z,3.22
2023-05-19T18:46:56.229Z,8.43
2023-05-19T18:49:25.327Z,7.45
2023-05-19T18:51:54.026Z,4.38
2023-05-19T18:54:22.437Z,4.78
2023-05-19T18:56:50.491Z,6.18
2023-05-19T18:59:19.678Z,8.88
2023-05-19T19:01:47.735Z,4.07
2023-05-19T19:04:16.830Z,4.55
2023-05-19T19:06:44.667Z,4.60
2023-05-19T19:09:12.567Z,2.58
2023-05-19T19:11:40.640Z,5.35
2023-05-19T19:14:08.840Z,6.20
2023-05-19T19:16:38.738Z,3.78
2023-05-19T19:19:06.833Z,5.18
2023-05-19T19:21:34.695Z,4.07
2023-05-19T19:24:03.053Z,4.68
2023-05-19T19:26:30.952Z,4.25
2023-05-19T19:28:59.012Z,5.13
2023-05-19T19:31:28.781Z,3.38
2023-05-19T19:34:00.854Z,4.68
2023-05-19T19:36:28.599Z,3.75
2023-05-19T19:38:56.589Z,5.07
2023-05-19T19:41:25.369Z,8.68
2023-05-19T19:43:53.852Z,6.22
2023-05-19T19:46:21.789Z,6.20
2023-05-19T19:48:52.306Z,4.20
2023-05-19T19:51:21.442Z,4.13
2023-05-19T19:53:49.234Z,3.92
2023-05-19T19:56:17.241Z,4.88
2023-05-19T19:58:45.430Z,4.93
2023-05-19T20:01:13.187Z,3.08
2023-05-19T20:03:41.244Z,7.35
2023-05-19T20:06:09.162Z,4.15
2023-05-19T20:08:38.275Z,2.45
2023-05-19T20:11:06.658Z,2.60
2023-05-19T20:13:34.423Z,3.03
2023-05-19T20:16:02.594Z,3.42
2023-05-19T20:18:30.970Z,3.85
2023-05-19T20:20:58.768Z,3.75
2023-05-19T20:23:26.647Z,4.75
2023-05-19T20:26:10.855Z,5.00
2023-05-19T20:28:41.145Z,2.63
2023-05-19T20:31:09.046Z,3.25
2023-05-19T20:33:36.948Z,3.45
2023-05-19T20:36:06.222Z,2.55
2023-05-19T20:38:34.146Z,11.07
2023-05-19T20:41:03.891Z,5.18
2023-05-19T20:43:32.900Z,2.28
